Port St. Joe, FL

8:14 PM EDT on September 18, 2014 (GMT -0400)
White City | Change Station
CLOSE
Current Station
Personal Weather Station
Location: Wewahitchka, FL
Elevation: 23 ft
Nearby Weather Stations

Elev 23 ft 29.88 °N, 85.21 °W | Updated 37 seconds ago

Partly Cloudy
Partly Cloudy
73.8 °F
Feels Like 72 °F
N
0.0
Wind Variable Wind from South

Today
High -- | Low -- °F
--% Chance of Precip.
Yesterday
High -- | Low -- °F
Precip. -- in
7:27 AM 7:42 PM
Waning Crescent, 23% visible
Pressure 29.90 in
Visibility 10.0 miles
Clouds Clear
Heat Index 72 °F
Dew Point 71 °F
Humidity 90%
Rainfall 0.00 in
Snow Depth Not available.
UV 0 out of 12
Pollen 8.80 out of 12
Air Quality Not available.
Flu Activity Not available.
METAR KAAF 182353Z AUTO 36004KT 10SM CLR 27/22 A2990 RMK AO2 SLP124 T02670217 10317 20261 51003 $

More Conditions Fewer Conditions

Pressure 29.90 in
Visibility 10.0 miles
Clouds Clear
Heat Index 72 °F
Dew Point 71 °F
Humidity 90%
Rainfall 0.00 in
Snow Depth Not available.
UV 0 out of 12
Pollen 8.80 out of 12
Air Quality Not available.
Flu Activity Not available.
METAR KAAF 182353Z AUTO 36004KT 10SM CLR 27/22 A2990 RMK AO2 SLP124 T02670217 10317 20261 51003 $

More Conditions Fewer Conditions

10-Day Weather Forecast

Almanac

Astronomy

Sep. 18, 2014 Rise Set
Actual Time 7:27 AM EDT 7:42 PM EDT
Civil Twilight 7:03 AM EDT 8:06 PM EDT
Nautical Twilight 6:35 AM EDT 8:34 PM EDT
Astronomical Twilight 6:07 AM EDT 9:02 PM EDT
Moon 2:35 AM EDT (9/18) 4:17 PM EDT (9/18)
Length of Visible Light 13h 03m
Length of Day
12h 15m
Tomorrow will be 1m 47s shorter.
Waning Crescent, 23% of the Moon is Illuminated
Today
Waning Crescent
Sep 24
New
Oct 1
First Quarter
Oct 8
Full
Oct 15
Last Quarter

Today's Extremes

State Highs State Lows

Community

WunderPhotos

Upload Photos

1,754,501 photos uploaded!

WunderBlogs® & News

Nearby

Snow Depth

Station Depth Elevation
No new snow has been reported.

Earthquake Activity

City Distance Mag. Time & Date
No recent earthquake activity has been reported nearby.
Minimum magnitude displayed is 2.5.

Coastal Water Temperatures

Place Temperature
Panama City, FL 88.0 °F
Panama City Beach, FL 87.1 °F
Apalachicola, FL 84.9 °F

Nearby Weather Stations